createdAt,value
2018-09-13T00:00:46.008Z,8.35
2018-09-13T00:03:13.450Z,7.20
2018-09-13T00:05:40.892Z,7.75
2018-09-13T00:08:08.314Z,7.05
2018-09-13T00:10:35.752Z,7.75
2018-09-13T00:13:03.256Z,6.60
2018-09-13T00:15:30.745Z,6.20
2018-09-13T00:17:58.192Z,6.87
2018-09-13T00:20:25.607Z,6.95
2018-09-13T00:22:53.154Z,7.12
2018-09-13T00:25:20.563Z,7.42
2018-09-13T00:27:47.963Z,7.47
2018-09-13T00:30:15.379Z,8.10
2018-09-13T00:32:42.815Z,8.78
2018-09-13T00:35:10.251Z,8.03
2018-09-13T00:37:37.733Z,6.70
2018-09-13T00:40:05.242Z,7.30
2018-09-13T00:42:32.711Z,6.45
2018-09-13T00:45:00.157Z,6.75
2018-09-13T00:47:27.575Z,6.62
2018-09-13T00:49:55.049Z,7.45
2018-09-13T00:52:22.592Z,6.45
2018-09-13T00:54:49.987Z,6.72
2018-09-13T00:57:17.432Z,6.47
2018-09-13T00:59:44.877Z,6.92
2018-09-13T01:02:12.314Z,6.75
2018-09-13T01:04:39.814Z,7.65
2018-09-13T01:07:07.220Z,6.35
2018-09-13T01:09:34.736Z,6.58
2018-09-13T01:12:02.257Z,7.58
2018-09-13T01:14:29.760Z,7.30
2018-09-13T01:16:57.366Z,7.17
2018-09-13T01:19:25.201Z,6.60
2018-09-13T01:21:52.712Z,7.70
2018-09-13T01:24:20.215Z,6.50
2018-09-13T01:26:47.628Z,7.58
2018-09-13T01:29:15.059Z,7.83
2018-09-13T01:31:42.657Z,8.08
2018-09-13T01:34:10.103Z,7.05
2018-09-13T01:36:37.559Z,7.17
2018-09-13T01:39:06.883Z,6.95
2018-09-13T01:41:34.295Z,5.87
2018-09-13T01:44:01.718Z,6.42
2018-09-13T01:46:29.280Z,7.20
2018-09-13T01:48:56.702Z,6.03
2018-09-13T01:51:24.276Z,7.45
2018-09-13T01:53:51.787Z,6.25
2018-09-13T01:56:19.198Z,5.50
2018-09-13T01:58:46.735Z,6.20
2018-09-13T02:01:14.134Z,5.90
2018-09-13T02:03:41.699Z,6.35
2018-09-13T02:06:09.132Z,6.22
2018-09-13T02:08:36.604Z,6.65
2018-09-13T02:11:04.124Z,5.95
2018-09-13T02:13:31.519Z,5.87
2018-09-13T02:15:58.959Z,6.10
2018-09-13T02:18:26.391Z,6.42
2018-09-13T02:20:53.816Z,5.37
2018-09-13T02:23:21.453Z,6.30
2018-09-13T02:25:48.994Z,6.50
2018-09-13T02:28:16.407Z,6.37
2018-09-13T02:30:44.005Z,5.45
2018-09-13T02:33:11.427Z,6.35
2018-09-13T02:35:38.878Z,5.92
2018-09-13T02:38:06.447Z,6.22
2018-09-13T02:40:33.867Z,5.70
2018-09-13T02:43:01.286Z,5.87
2018-09-13T02:45:28.847Z,5.50
2018-09-13T02:47:56.259Z,5.75
2018-09-13T02:50:23.771Z,5.83
2018-09-13T02:52:51.280Z,5.97
2018-09-13T02:55:18.853Z,6.92
2018-09-13T02:57:46.347Z,5.92
2018-09-13T03:00:13.796Z,5.60
2018-09-13T03:02:41.315Z,5.87
2018-09-13T03:05:08.787Z,5.75
2018-09-13T03:07:36.348Z,5.22
2018-09-13T03:10:03.946Z,5.85
2018-09-13T03:12:31.436Z,5.70
2018-09-13T03:14:58.924Z,5.65
2018-09-13T03:17:26.457Z,5.92
2018-09-13T03:19:54.037Z,5.25
2018-09-13T03:22:21.601Z,5.53
2018-09-13T03:24:49.150Z,5.85
2018-09-13T03:27:16.563Z,5.45
2018-09-13T03:29:44.044Z,5.90
2018-09-13T03:32:11.548Z,6.10
2018-09-13T03:34:39.128Z,5.55
2018-09-13T03:37:06.543Z,5.60
2018-09-13T03:39:34.110Z,6.62
2018-09-13T03:42:01.715Z,6.00
2018-09-13T03:44:29.209Z,6.25
2018-09-13T03:46:57.718Z,5.97
2018-09-13T03:49:25.651Z,5.53
2018-09-13T03:51:53.703Z,5.97
2018-09-13T03:54:21.697Z,6.05
2018-09-13T03:56:49.634Z,5.83
2018-09-13T03:59:17.787Z,4.78
2018-09-13T04:01:45.255Z,6.05
2018-09-13T04:04:12.757Z,6.92
2018-09-13T04:06:40.167Z,6.65
2018-09-13T04:09:09.805Z,6.20
2018-09-13T04:11:37.404Z,6.22
2018-09-13T04:14:04.981Z,6.83
2018-09-13T04:16:32.497Z,7.00
2018-09-13T04:19:00.024Z,7.00
2018-09-13T04:21:27.488Z,6.87
2018-09-13T04:23:54.899Z,6.05
2018-09-13T04:26:22.432Z,6.55
2018-09-13T04:28:50.407Z,7.35
2018-09-13T04:31:18.545Z,7.00
2018-09-13T04:33:45.998Z,6.40
2018-09-13T04:36:13.713Z,7.35
2018-09-13T04:38:41.143Z,6.53
2018-09-13T04:41:08.554Z,6.85
2018-09-13T04:43:38.291Z,6.53
2018-09-13T04:46:05.907Z,6.42
2018-09-13T04:48:33.422Z,6.45
2018-09-13T04:51:01.347Z,6.85
2018-09-13T04:53:28.855Z,6.72
2018-09-13T04:55:56.303Z,6.90
2018-09-13T04:58:23.874Z,6.47
2018-09-13T05:00:52.008Z,6.22
2018-09-13T05:03:19.526Z,6.30
2018-09-13T05:05:47.065Z,6.20
2018-09-13T05:08:14.487Z,6.10
2018-09-13T05:10:41.964Z,6.40
2018-09-13T05:13:09.392Z,5.90
2018-09-13T05:15:36.965Z,6.35
2018-09-13T05:18:04.557Z,6.87
2018-09-13T05:20:32.140Z,6.78
2018-09-13T05:22:59.654Z,6.65
2018-09-13T05:25:27.127Z,6.70
2018-09-13T05:27:54.615Z,5.87
2018-09-13T05:30:22.039Z,6.75
2018-09-13T05:32:49.451Z,6.22
2018-09-13T05:35:16.878Z,6.35
2018-09-13T05:37:44.535Z,6.90
2018-09-13T05:40:11.976Z,6.47
2018-09-13T05:42:39.489Z,5.90
2018-09-13T05:45:06.988Z,6.67
2018-09-13T05:47:34.426Z,5.62
2018-09-13T05:50:02.915Z,5.92
2018-09-13T05:52:30.434Z,5.45
2018-09-13T05:54:57.858Z,5.65
2018-09-13T05:57:25.315Z,6.30
2018-09-13T05:59:52.778Z,5.58
2018-09-13T06:02:20.304Z,6.00
2018-09-13T06:04:47.839Z,6.10
2018-09-13T06:07:15.272Z,5.62
2018-09-13T06:09:42.791Z,5.62
2018-09-13T06:12:10.303Z,5.00
2018-09-13T06:14:37.750Z,5.08
2018-09-13T06:17:06.014Z,4.35
2018-09-13T06:19:33.471Z,5.17
2018-09-13T06:22:00.875Z,5.10
2018-09-13T06:24:28.408Z,5.45
2018-09-13T06:26:56.234Z,4.67
2018-09-13T06:29:23.797Z,4.97
2018-09-13T06:31:51.161Z,5.15
2018-09-13T06:34:18.699Z,5.53
2018-09-13T06:36:46.135Z,5.72
2018-09-13T06:39:14.100Z,5.17
2018-09-13T06:41:41.516Z,6.25
2018-09-13T06:44:09.811Z,4.95
2018-09-13T06:46:37.493Z,5.20
2018-09-13T06:49:05.027Z,4.75
2018-09-13T06:51:32.597Z,4.75
2018-09-13T06:54:00.097Z,5.47
2018-09-13T06:56:27.482Z,4.58
2018-09-13T06:58:56.330Z,4.10
2018-09-13T07:01:24.144Z,4.97
2018-09-13T07:03:51.586Z,5.10
2018-09-13T07:06:19.034Z,4.20
2018-09-13T07:08:46.897Z,4.72
2018-09-13T07:11:14.488Z,4.92
2018-09-13T07:13:42.020Z,4.65
2018-09-13T07:16:09.502Z,5.40
2018-09-13T07:18:37.066Z,4.97
2018-09-13T07:21:04.617Z,4.60
2018-09-13T07:23:32.150Z,5.45
2018-09-13T07:26:01.768Z,4.95
2018-09-13T07:28:29.385Z,5.12
2018-09-13T07:30:57.041Z,5.10
2018-09-13T07:33:24.438Z,5.17
2018-09-13T07:35:51.867Z,5.83
2018-09-13T07:38:19.879Z,5.58
2018-09-13T07:40:47.349Z,6.05
2018-09-13T07:43:14.799Z,7.10
2018-09-13T07:45:42.429Z,7.20
2018-09-13T07:48:10.011Z,7.97
2018-09-13T07:50:37.684Z,6.17
2018-09-13T07:53:05.207Z,6.87
2018-09-13T07:55:32.699Z,5.85
2018-09-13T07:58:02.310Z,5.80
2018-09-13T08:00:29.802Z,5.83
2018-09-13T08:02:57.228Z,6.40
2018-09-13T08:05:24.803Z,6.35
2018-09-13T08:07:52.275Z,6.05
2018-09-13T08:10:19.885Z,4.70
2018-09-13T08:12:47.332Z,5.60
2018-09-13T08:15:14.926Z,6.25
2018-09-13T08:17:42.436Z,6.15
2018-09-13T08:20:10.090Z,5.20
2018-09-13T08:22:37.657Z,4.75
2018-09-13T08:25:05.219Z,5.40
2018-09-13T08:27:32.834Z,5.70
2018-09-13T08:30:00.548Z,7.15
2018-09-13T08:32:28.108Z,6.58
2018-09-13T08:34:56.333Z,6.17
2018-09-13T08:37:23.695Z,4.90
2018-09-13T08:39:51.228Z,6.05
2018-09-13T08:42:18.655Z,5.40
2018-09-13T08:44:46.152Z,5.35
2018-09-13T08:47:13.663Z,6.47
2018-09-13T08:49:41.116Z,5.45
2018-09-13T08:52:08.740Z,5.78
2018-09-13T08:54:36.212Z,5.72
2018-09-13T08:57:03.666Z,5.62
2018-09-13T08:59:31.103Z,5.47
2018-09-13T09:01:58.627Z,6.58
2018-09-13T09:04:26.083Z,5.30
2018-09-13T09:06:53.552Z,5.65
2018-09-13T09:09:21.045Z,5.17
2018-09-13T09:11:48.623Z,4.00
2018-09-13T09:14:16.066Z,4.50
2018-09-13T09:16:43.536Z,4.85
2018-09-13T09:19:11.019Z,3.87
2018-09-13T09:21:38.727Z,4.15
2018-09-13T09:24:06.301Z,3.70
2018-09-13T09:26:33.784Z,5.10
2018-09-13T09:29:01.437Z,3.92
2018-09-13T09:31:28.905Z,4.28
2018-09-13T09:33:56.390Z,4.80
2018-09-13T09:36:23.879Z,4.50
2018-09-13T09:38:51.395Z,4.10
2018-09-13T09:41:18.883Z,4.25
2018-09-13T09:43:46.370Z,3.55
2018-09-13T09:46:13.803Z,3.77
2018-09-13T09:48:41.283Z,3.92
2018-09-13T09:51:08.991Z,3.30
2018-09-13T09:53:36.454Z,4.20
2018-09-13T09:56:03.960Z,3.62
2018-09-13T09:58:31.497Z,4.03
2018-09-13T10:01:06.158Z,3.42
2018-09-13T10:03:33.692Z,4.22
2018-09-13T10:06:01.755Z,4.00
2018-09-13T10:08:29.325Z,4.12
2018-09-13T10:10:57.054Z,5.20
2018-09-13T10:13:24.520Z,3.83
2018-09-13T10:15:57.990Z,3.75
2018-09-13T10:18:31.167Z,4.10
2018-09-13T10:21:04.292Z,3.72
2018-09-13T10:23:37.921Z,3.95
2018-09-13T10:26:12.466Z,3.98
2018-09-13T10:28:45.705Z,4.12
2018-09-13T10:31:18.965Z,3.77
2018-09-13T10:33:52.207Z,3.02
2018-09-13T10:36:25.363Z,3.15
2018-09-13T10:38:58.615Z,3.83
2018-09-13T10:41:31.618Z,4.35
2018-09-13T10:44:04.936Z,4.90
2018-09-13T10:46:32.584Z,4.60
2018-09-13T10:49:05.603Z,4.10
2018-09-13T10:51:38.757Z,3.90
2018-09-13T10:54:11.459Z,4.28
2018-09-13T10:56:39.593Z,4.20
2018-09-13T10:59:07.155Z,4.00
2018-09-13T11:01:34.775Z,4.10
2018-09-13T11:04:02.486Z,4.03
2018-09-13T11:06:30.002Z,3.95
2018-09-13T11:08:57.479Z,4.22
2018-09-13T11:11:25.002Z,4.03
2018-09-13T11:13:57.163Z,4.35
2018-09-13T11:16:24.692Z,4.03
2018-09-13T11:18:52.354Z,4.42
2018-09-13T11:21:19.907Z,4.87
2018-09-13T11:23:47.467Z,4.45
2018-09-13T11:26:14.941Z,3.62
2018-09-13T11:28:42.483Z,3.47
2018-09-13T11:31:09.986Z,4.00
2018-09-13T11:33:37.486Z,4.20
2018-09-13T11:36:04.963Z,3.98
2018-09-13T11:38:32.482Z,3.77
2018-09-13T11:40:59.990Z,3.77
2018-09-13T11:43:28.191Z,4.20
2018-09-13T11:45:55.675Z,5.05
2018-09-13T11:48:23.407Z,5.28
2018-09-13T11:50:50.867Z,4.92
2018-09-13T11:53:18.336Z,4.47
2018-09-13T11:55:45.888Z,4.45
2018-09-13T11:58:14.467Z,5.37
2018-09-13T12:00:42.319Z,5.03
2018-09-13T12:03:18.710Z,4.60
2018-09-13T12:05:46.265Z,4.37
2018-09-13T12:08:13.714Z,5.33
2018-09-13T12:10:41.195Z,4.33
2018-09-13T12:13:08.684Z,4.50
2018-09-13T12:15:36.251Z,5.70
2018-09-13T12:18:03.861Z,4.53
2018-09-13T12:20:31.155Z,4.87
2018-09-13T12:22:58.681Z,5.33
2018-09-13T12:25:26.144Z,5.12
2018-09-13T12:27:53.738Z,5.17
2018-09-13T12:30:21.160Z,5.00
2018-09-13T12:32:48.785Z,4.87
2018-09-13T12:35:16.208Z,4.65
2018-09-13T12:37:43.952Z,4.55
2018-09-13T12:40:11.431Z,3.80
2018-09-13T12:42:38.947Z,4.47
2018-09-13T12:45:07.372Z,4.40
2018-09-13T12:47:34.831Z,4.28
2018-09-13T12:50:02.673Z,4.17
2018-09-13T12:52:30.078Z,4.45
2018-09-13T12:54:57.570Z,3.95
2018-09-13T12:57:25.012Z,4.35
2018-09-13T12:59:52.442Z,4.20
2018-09-13T13:02:19.947Z,4.25
2018-09-13T13:04:47.447Z,3.65
2018-09-13T13:07:15.034Z,3.65
2018-09-13T13:09:42.524Z,4.12
2018-09-13T13:12:10.000Z,3.58
2018-09-13T13:14:37.465Z,3.52
2018-09-13T13:17:05.320Z,3.65
2018-09-13T13:19:32.923Z,3.80
2018-09-13T13:22:00.686Z,4.58
2018-09-13T13:24:28.901Z,3.75
2018-09-13T13:26:56.961Z,4.33
2018-09-13T13:29:24.414Z,3.98
2018-09-13T13:31:52.195Z,4.40
2018-09-13T13:34:19.671Z,3.90
2018-09-13T13:36:47.441Z,3.80
2018-09-13T13:39:14.887Z,3.83
2018-09-13T13:41:44.008Z,3.40
2018-09-13T13:44:11.979Z,3.98
2018-09-13T13:46:39.458Z,4.03
2018-09-13T13:49:08.848Z,5.08
2018-09-13T13:51:36.514Z,4.87
2018-09-13T13:54:04.367Z,5.03
2018-09-13T13:56:32.388Z,4.72
2018-09-13T13:59:00.303Z,5.08
2018-09-13T14:01:27.893Z,4.58
2018-09-13T14:03:55.454Z,4.65
2018-09-13T14:06:23.198Z,4.83
2018-09-13T14:08:50.843Z,4.97
2018-09-13T14:11:18.290Z,5.87
2018-09-13T14:13:47.006Z,4.78
2018-09-13T14:16:14.436Z,5.28
2018-09-13T14:18:41.854Z,5.42
2018-09-13T14:21:09.323Z,4.60
2018-09-13T14:23:37.084Z,5.35
2018-09-13T14:26:04.644Z,3.50
2018-09-13T14:28:32.086Z,4.55
2018-09-13T14:30:59.633Z,4.97
2018-09-13T14:33:27.298Z,5.28
2018-09-13T14:35:54.729Z,4.87
2018-09-13T14:38:22.151Z,5.40
2018-09-13T14:40:49.615Z,4.37
2018-09-13T14:43:17.127Z,4.75
2018-09-13T14:45:44.635Z,4.80
2018-09-13T14:48:12.075Z,5.08
2018-09-13T14:50:39.545Z,5.00
2018-09-13T14:53:07.697Z,4.42
2018-09-13T14:55:35.228Z,4.72
2018-09-13T14:58:02.706Z,4.50
2018-09-13T15:00:30.317Z,4.78
2018-09-13T15:02:57.998Z,4.83
2018-09-13T15:05:25.634Z,4.90
2018-09-13T15:07:53.099Z,5.17
2018-09-13T15:10:20.841Z,4.45
2018-09-13T15:12:48.521Z,4.60
2018-09-13T15:15:15.916Z,5.20
2018-09-13T15:17:43.363Z,5.67
2018-09-13T15:20:10.818Z,4.87
2018-09-13T15:22:38.323Z,4.78
2018-09-13T15:25:05.968Z,4.67
2018-09-13T15:27:33.861Z,4.22
2018-09-13T15:30:02.398Z,4.75
2018-09-13T15:32:29.870Z,4.78
2018-09-13T15:34:57.982Z,4.87
2018-09-13T15:37:25.693Z,4.92
2018-09-13T15:39:53.847Z,3.87
2018-09-13T15:42:21.411Z,4.28
2018-09-13T15:44:48.907Z,5.20
2018-09-13T15:47:17.386Z,9.73
2018-09-13T15:49:44.959Z,5.22
2018-09-13T15:52:12.424Z,6.22
2018-09-13T15:54:39.985Z,7.17
2018-09-13T15:57:09.862Z,6.37
2018-09-13T15:59:37.371Z,6.35
2018-09-13T16:02:04.881Z,4.92
2018-09-13T16:04:32.316Z,5.87
2018-09-13T16:06:59.824Z,6.55
2018-09-13T16:09:27.342Z,6.17
2018-09-13T16:11:54.776Z,5.97
2018-09-13T16:14:22.199Z,6.10
2018-09-13T16:16:49.625Z,6.05
2018-09-13T16:19:17.113Z,6.85
2018-09-13T16:21:44.607Z,7.03
2018-09-13T16:24:12.101Z,7.55
2018-09-13T16:26:39.557Z,7.15
2018-09-13T16:29:07.094Z,7.08
2018-09-13T16:31:36.794Z,7.42
2018-09-13T16:34:04.276Z,7.97
2018-09-13T16:36:31.800Z,7.92
2018-09-13T16:39:10.947Z,7.72
2018-09-13T16:41:44.179Z,7.33
2018-09-13T16:44:17.303Z,7.28
2018-09-13T16:46:50.513Z,8.53
2018-09-13T16:49:17.983Z,7.92
2018-09-13T16:51:45.415Z,7.67
2018-09-13T16:54:12.898Z,7.47
2018-09-13T16:56:40.415Z,6.97
2018-09-13T16:59:07.870Z,7.33
2018-09-13T17:01:35.467Z,8.28
2018-09-13T17:04:02.987Z,7.55
2018-09-13T17:06:30.491Z,6.83
2018-09-13T17:08:57.943Z,8.23
2018-09-13T17:11:25.384Z,7.87
2018-09-13T17:13:52.932Z,8.78
2018-09-13T17:16:20.390Z,8.65
2018-09-13T17:18:47.955Z,7.53
2018-09-13T17:21:15.412Z,8.63
2018-09-13T17:23:42.900Z,7.28
2018-09-13T17:26:10.450Z,7.78
2018-09-13T17:28:37.951Z,8.45
2018-09-13T17:31:05.499Z,7.40
2018-09-13T17:33:33.060Z,7.67
2018-09-13T17:36:00.479Z,7.37
2018-09-13T17:38:27.931Z,6.90
2018-09-13T17:40:55.361Z,6.10
2018-09-13T17:43:22.791Z,7.00
2018-09-13T17:45:50.706Z,7.42
2018-09-13T17:48:18.320Z,6.92
2018-09-13T17:50:45.784Z,7.45
2018-09-13T17:53:13.280Z,6.45
2018-09-13T17:55:40.726Z,5.90
2018-09-13T17:58:08.202Z,6.78
2018-09-13T18:00:35.607Z,6.17
2018-09-13T18:03:03.119Z,6.87
2018-09-13T18:05:30.571Z,6.08
2018-09-13T18:07:58.084Z,5.95
2018-09-13T18:10:25.515Z,5.25
2018-09-13T18:12:53.112Z,6.45
2018-09-13T18:15:20.611Z,6.08
2018-09-13T18:17:48.097Z,5.75
2018-09-13T18:20:15.568Z,5.75
2018-09-13T18:22:43.357Z,5.28
2018-09-13T18:25:10.850Z,6.28
2018-09-13T18:27:38.395Z,5.70
2018-09-13T18:30:05.944Z,5.92
2018-09-13T18:32:33.391Z,5.60
2018-09-13T18:35:00.883Z,5.45
2018-09-13T18:37:28.435Z,5.62
2018-09-13T18:39:56.179Z,5.75
2018-09-13T18:42:24.860Z,5.95
2018-09-13T18:44:52.543Z,5.58
2018-09-13T18:47:19.981Z,6.05
2018-09-13T18:49:47.538Z,6.28
2018-09-13T18:52:15.443Z,5.70
2018-09-13T18:54:43.351Z,6.55
2018-09-13T18:57:11.220Z,6.10
2018-09-13T18:59:38.751Z,5.70
2018-09-13T19:02:06.327Z,5.80
2018-09-13T19:04:34.548Z,5.62
2018-09-13T19:07:03.132Z,6.70
2018-09-13T19:09:30.704Z,6.15
2018-09-13T19:11:58.202Z,6.22
2018-09-13T19:14:26.072Z,5.75
2018-09-13T19:16:53.785Z,6.03
2018-09-13T19:19:21.323Z,6.80
2018-09-13T19:21:48.750Z,7.67
2018-09-13T19:24:16.998Z,7.05
2018-09-13T19:26:44.609Z,7.95
2018-09-13T19:29:12.036Z,7.40
2018-09-13T19:31:39.457Z,8.40
2018-09-13T19:34:07.931Z,8.00
2018-09-13T19:36:35.370Z,9.35
2018-09-13T19:39:03.074Z,9.38
2018-09-13T19:41:30.571Z,8.80
2018-09-13T19:43:58.567Z,9.05
2018-09-13T19:46:26.150Z,8.78
2018-09-13T19:48:53.519Z,8.55
2018-09-13T19:51:21.627Z,8.35
2018-09-13T19:53:49.249Z,8.25
2018-09-13T19:56:16.706Z,8.25
2018-09-13T19:58:44.155Z,7.87
2018-09-13T20:01:11.699Z,7.53
2018-09-13T20:03:39.596Z,6.15
2018-09-13T20:06:07.147Z,6.10
2018-09-13T20:08:34.607Z,5.03
2018-09-13T20:11:02.052Z,5.60
2018-09-13T20:13:29.574Z,4.53
2018-09-13T20:15:57.245Z,4.60
2018-09-13T20:18:24.845Z,4.45
2018-09-13T20:20:52.335Z,4.05
2018-09-13T20:23:20.039Z,4.70
2018-09-13T20:25:47.522Z,4.22
2018-09-13T20:28:15.013Z,4.33
2018-09-13T20:30:42.518Z,4.20
2018-09-13T20:33:10.087Z,4.35
2018-09-13T20:35:37.609Z,3.92
2018-09-13T20:38:05.004Z,3.65
2018-09-13T20:40:32.555Z,3.85
2018-09-13T20:43:00.035Z,3.50
2018-09-13T20:45:28.136Z,3.47
2018-09-13T20:47:55.564Z,3.25
2018-09-13T20:50:23.055Z,3.35
2018-09-13T20:52:51.438Z,3.02
2018-09-13T20:55:18.971Z,2.90
2018-09-13T20:57:46.495Z,3.20
2018-09-13T21:00:18.393Z,3.05
2018-09-13T21:02:46.431Z,2.98
2018-09-13T21:05:13.868Z,2.85
2018-09-13T21:07:41.333Z,3.10
2018-09-13T21:10:08.897Z,2.80
2018-09-13T21:12:36.441Z,3.35
2018-09-13T21:15:04.787Z,3.35
2018-09-13T21:17:32.295Z,3.40
2018-09-13T21:19:59.705Z,3.58
2018-09-13T21:22:27.260Z,2.75
2018-09-13T21:24:54.747Z,2.40
2018-09-13T21:27:22.414Z,2.50
2018-09-13T21:29:50.601Z,2.50
2018-09-13T21:32:18.272Z,2.45
2018-09-13T21:34:45.884Z,1.50
2018-09-13T21:37:13.752Z,2.55
2018-09-13T21:39:41.260Z,2.67
2018-09-13T21:42:08.699Z,2.37
2018-09-13T21:44:36.188Z,2.60
2018-09-13T21:47:03.705Z,3.02
2018-09-13T21:49:31.240Z,2.95
2018-09-13T21:51:58.760Z,3.22
2018-09-13T21:54:26.425Z,3.75
2018-09-13T21:56:53.891Z,3.25
2018-09-13T21:59:21.413Z,3.17
2018-09-13T22:01:48.849Z,3.33
2018-09-13T22:04:17.380Z,3.90
2018-09-13T22:06:44.862Z,4.40
2018-09-13T22:09:14.617Z,3.02
2018-09-13T22:11:42.338Z,3.12
2018-09-13T22:14:09.836Z,3.45
2018-09-13T22:16:37.545Z,2.95
2018-09-13T22:19:05.276Z,2.95
2018-09-13T22:21:40.356Z,3.02
2018-09-13T22:24:08.920Z,2.95
2018-09-13T22:26:36.578Z,2.27
2018-09-13T22:29:04.826Z,2.42
2018-09-13T22:31:33.056Z,1.95
2018-09-13T22:34:00.591Z,2.20
2018-09-13T22:36:28.295Z,1.82
2018-09-13T22:38:55.731Z,1.80
2018-09-13T22:41:23.271Z,1.62
2018-09-13T22:43:51.671Z,1.30
2018-09-13T22:46:20.815Z,1.67
2018-09-13T22:48:48.711Z,1.20
2018-09-13T22:51:16.535Z,1.20
2018-09-13T22:53:44.014Z,1.40
2018-09-13T22:56:11.841Z,0.90
2018-09-13T22:58:39.307Z,0.80
2018-09-13T23:01:06.945Z,0.90
2018-09-13T23:03:34.360Z,1.20
2018-09-13T23:06:01.803Z,1.30
2018-09-13T23:08:29.243Z,1.55
2018-09-13T23:10:56.671Z,0.82
2018-09-13T23:13:24.544Z,1.12
2018-09-13T23:15:52.101Z,1.37
2018-09-13T23:18:19.559Z,0.85
2018-09-13T23:20:47.088Z,1.00
2018-09-13T23:23:14.500Z,1.20
2018-09-13T23:25:41.907Z,0.98
2018-09-13T23:28:09.404Z,1.07
2018-09-13T23:30:36.882Z,1.27
2018-09-13T23:33:04.356Z,1.25
2018-09-13T23:35:31.832Z,0.80
2018-09-13T23:37:59.323Z,1.12
2018-09-13T23:40:26.996Z,0.80
2018-09-13T23:42:54.379Z,1.12
2018-09-13T23:45:21.865Z,0.93
2018-09-13T23:47:49.294Z,1.20
2018-09-13T23:50:16.723Z,0.88
2018-09-13T23:52:44.136Z,0.88
2018-09-13T23:55:11.590Z,0.80
2018-09-13T23:57:39.068Z,0.62
